createdAt,value
2019-04-23T00:03:45.769Z,99.90
2019-04-23T00:08:50.457Z,99.90
2019-04-23T00:13:44.149Z,99.90
2019-04-23T00:16:12.852Z,99.90
2019-04-23T00:18:43.737Z,99.90
2019-04-23T00:21:29.879Z,99.90
2019-04-23T00:24:06.951Z,99.90
2019-04-23T00:29:02.022Z,99.90
2019-04-23T00:31:26.120Z,99.90
2019-04-23T00:33:54.158Z,99.90
2019-04-23T00:36:27.166Z,99.90
2019-04-23T00:38:46.356Z,99.90
2019-04-23T00:41:16.499Z,99.90
2019-04-23T00:43:49.010Z,99.90
2019-04-23T00:46:18.964Z,99.90
2019-04-23T00:51:09.962Z,99.90
2019-04-23T00:53:37.039Z,99.90
2019-04-23T00:56:24.969Z,99.90
2019-04-23T01:01:02.429Z,99.90
2019-04-23T01:03:36.107Z,99.90
2019-04-23T01:06:06.434Z,99.90
2019-04-23T01:08:29.740Z,99.90
2019-04-23T01:13:52.983Z,99.90
2019-04-23T01:16:05.403Z,99.90
2019-04-23T01:20:54.638Z,99.90
2019-04-23T01:23:40.331Z,99.90
2019-04-23T01:26:20.847Z,99.90
2019-04-23T01:28:55.639Z,99.90
2019-04-23T01:33:50.319Z,99.90
2019-04-23T01:36:25.254Z,99.90
2019-04-23T01:39:08.485Z,99.90
2019-04-23T01:41:20.114Z,99.90
2019-04-23T01:43:47.376Z,99.90
2019-04-23T01:46:12.868Z,99.90
2019-04-23T01:48:50.204Z,99.90
2019-04-23T01:51:15.261Z,99.90
2019-04-23T01:53:48.163Z,99.90
2019-04-23T01:56:18.455Z,99.90
2019-04-23T02:01:29.622Z,99.90
2019-04-23T02:03:43.746Z,99.90
2019-04-23T02:06:08.689Z,99.90
2019-04-23T02:08:37.479Z,99.90
2019-04-23T02:11:05.356Z,99.90
2019-04-23T02:13:51.551Z,99.90
2019-04-23T02:16:01.372Z,99.90
2019-04-23T02:18:30.687Z,99.90
2019-04-23T02:21:15.462Z,99.90
2019-04-23T02:23:49.406Z,99.90
2019-04-23T02:26:23.354Z,99.90
2019-04-23T02:33:49.864Z,99.90
2019-04-23T02:36:12.369Z,99.90
2019-04-23T02:38:50.083Z,99.90
2019-04-23T02:41:16.403Z,99.90
2019-04-23T02:43:35.671Z,99.90
2019-04-23T02:46:17.520Z,99.90
2019-04-23T02:48:44.284Z,99.90
2019-04-23T02:51:10.921Z,99.90
2019-04-23T02:54:00.590Z,99.90
2019-04-23T03:03:44.775Z,99.90
2019-04-23T03:08:36.263Z,99.90
2019-04-23T03:11:07.748Z,99.90
2019-04-23T03:13:35.023Z,99.90
2019-04-23T03:16:41.734Z,99.90
2019-04-23T03:19:09.873Z,99.90
2019-04-23T03:21:51.861Z,99.90
2019-04-23T03:29:40.129Z,99.90
2019-04-23T03:32:45.827Z,99.90
2019-04-23T03:35:09.208Z,99.90
2019-04-23T03:37:26.455Z,99.90
2019-04-23T03:39:36.514Z,99.90
2019-04-23T03:41:54.432Z,99.90
2019-04-23T03:44:30.041Z,99.90
2019-04-23T03:49:13.515Z,99.90
2019-04-23T03:51:52.314Z,99.90
2019-04-23T03:54:34.218Z,99.90
2019-04-23T03:59:19.980Z,99.90
2019-04-23T04:01:45.462Z,99.90
2019-04-23T04:07:01.289Z,99.90
2019-04-23T04:11:47.936Z,99.90
2019-04-23T04:21:33.587Z,99.90
2019-04-23T04:24:11.186Z,99.90
2019-04-23T04:26:51.682Z,99.90
2019-04-23T04:29:06.639Z,99.90
2019-04-23T04:31:42.228Z,99.90
2019-04-23T04:38:55.908Z,99.90
2019-04-23T04:41:29.059Z,99.90
2019-04-23T04:44:07.331Z,99.90
2019-04-23T04:46:30.900Z,99.90
2019-04-23T04:49:04.861Z,99.90
2019-04-23T04:51:32.292Z,99.90
2019-04-23T04:54:03.829Z,99.90
2019-04-23T04:56:27.592Z,99.90
2019-04-23T04:58:50.124Z,99.90
2019-04-23T05:01:15.521Z,99.90
2019-04-23T05:03:29.865Z,99.90
2019-04-23T05:11:19.624Z,99.90
2019-04-23T05:13:47.241Z,99.90
2019-04-23T05:16:07.962Z,99.90
2019-04-23T05:23:45.899Z,99.90
2019-04-23T05:26:22.087Z,99.90
2019-04-23T05:28:55.671Z,99.90
2019-04-23T05:31:17.675Z,99.90
2019-04-23T05:33:38.106Z,99.90
2019-04-23T05:36:22.727Z,99.90
2019-04-23T05:43:42.095Z,99.90
2019-04-23T05:46:04.447Z,99.90
2019-04-23T05:48:35.465Z,99.90
2019-04-23T05:53:33.343Z,99.90
2019-04-23T05:56:01.827Z,99.90
2019-04-23T06:01:47.775Z,99.90
2019-04-23T06:03:56.265Z,99.90
2019-04-23T06:06:20.840Z,99.90
2019-04-23T06:08:46.029Z,99.90
2019-04-23T06:13:56.141Z,99.90
2019-04-23T06:16:22.120Z,99.90
2019-04-23T06:18:44.766Z,99.90
2019-04-23T06:21:15.338Z,99.90
2019-04-23T06:28:46.232Z,99.90
2019-04-23T06:31:17.350Z,99.90
2019-04-23T06:33:40.127Z,99.90
2019-04-23T06:36:25.960Z,99.90
2019-04-23T06:41:08.651Z,99.90
2019-04-23T06:43:45.938Z,99.90
2019-04-23T06:46:10.002Z,99.90
2019-04-23T06:48:40.821Z,99.90
2019-04-23T06:51:11.425Z,99.90
2019-04-23T06:53:29.301Z,99.90
2019-04-23T06:56:06.827Z,99.90
2019-04-23T06:58:37.446Z,99.90
2019-04-23T07:01:03.452Z,99.90
2019-04-23T07:09:03.210Z,99.90
2019-04-23T07:11:18.839Z,99.90
2019-04-23T07:13:44.931Z,99.90
2019-04-23T07:16:08.023Z,99.90
2019-04-23T07:18:29.315Z,99.90
2019-04-23T07:21:09.476Z,99.10
2019-04-23T07:23:37.958Z,98.70
2019-04-23T07:26:08.064Z,98.60
2019-04-23T07:28:39.024Z,98.40
2019-04-23T07:31:07.372Z,94.80
2019-04-23T07:33:34.778Z,94.80
2019-04-23T07:36:01.874Z,94.00
2019-04-23T07:39:06.040Z,93.30
2019-04-23T07:41:47.953Z,93.30
2019-04-23T07:47:23.274Z,91.20
2019-04-23T07:50:00.591Z,90.40
2019-04-23T07:59:50.230Z,83.90
2019-04-23T08:04:56.602Z,82.30
2019-04-23T08:07:14.721Z,83.00
2019-04-23T08:09:43.975Z,80.70
2019-04-23T08:12:13.288Z,83.20
2019-04-23T08:14:43.925Z,80.00
2019-04-23T08:17:04.312Z,81.90
2019-04-23T08:19:47.867Z,78.50
2019-04-23T08:22:12.775Z,80.70
2019-04-23T08:25:09.026Z,77.20
2019-04-23T08:27:43.648Z,76.10
2019-04-23T08:30:13.749Z,75.70
2019-04-23T08:32:45.152Z,75.30
2019-04-23T08:35:16.367Z,75.80
2019-04-23T08:40:09.761Z,72.10
2019-04-23T08:42:45.659Z,72.50
2019-04-23T08:48:14.248Z,68.10
2019-04-23T08:53:17.944Z,69.50
2019-04-23T08:55:43.030Z,64.30
2019-04-23T08:57:58.193Z,62.90
2019-04-23T09:00:37.338Z,64.00
2019-04-23T09:03:06.122Z,64.50
2019-04-23T09:05:41.837Z,67.00
2019-04-23T09:08:08.343Z,64.40
2019-04-23T09:10:35.817Z,64.70
2019-04-23T09:13:27.101Z,61.90
2019-04-23T09:15:41.619Z,62.40
2019-04-23T09:18:02.758Z,62.00
2019-04-23T09:20:27.698Z,62.30
2019-04-23T09:22:54.951Z,61.30
2019-04-23T09:25:36.694Z,60.60
2019-04-23T09:28:00.057Z,62.20
2019-04-23T09:30:49.329Z,63.20
2019-04-23T09:33:13.875Z,59.80
2019-04-23T09:35:52.873Z,61.00
2019-04-23T09:38:34.454Z,60.10
2019-04-23T09:47:00.405Z,60.00
2019-04-23T09:49:29.024Z,60.90
2019-04-23T09:52:00.786Z,60.70
2019-04-23T09:54:32.555Z,59.30
2019-04-23T09:59:31.005Z,59.10
2019-04-23T10:01:41.050Z,59.40
2019-04-23T10:04:04.139Z,59.00
2019-04-23T10:06:25.019Z,59.00
2019-04-23T10:08:56.231Z,58.90
2019-04-23T10:11:22.257Z,58.90
2019-04-23T10:13:50.343Z,59.50
2019-04-23T10:16:21.006Z,59.80
2019-04-23T10:18:46.996Z,57.80
2019-04-23T10:21:15.489Z,57.70
2019-04-23T10:23:43.265Z,58.50
2019-04-23T10:26:12.116Z,58.50
2019-04-23T10:28:55.900Z,57.50
2019-04-23T10:31:23.124Z,56.80
2019-04-23T10:33:50.517Z,57.70
2019-04-23T10:36:21.953Z,56.90
2019-04-23T10:38:53.957Z,57.20
2019-04-23T10:41:16.170Z,57.60
2019-04-23T10:43:50.051Z,56.60
2019-04-23T10:46:53.700Z,56.60
2019-04-23T10:52:13.043Z,56.30
2019-04-23T10:57:16.761Z,55.30
2019-04-23T11:07:22.709Z,56.00
2019-04-23T11:09:53.059Z,55.40
2019-04-23T11:12:33.785Z,56.30
2019-04-23T11:17:26.965Z,56.20
2019-04-23T11:22:36.291Z,55.80
2019-04-23T11:27:25.475Z,56.10
2019-04-23T11:29:48.706Z,55.70
2019-04-23T11:35:03.462Z,54.50
2019-04-23T11:37:12.558Z,54.50
2019-04-23T11:39:45.219Z,55.60
2019-04-23T11:44:40.137Z,55.60
2019-04-23T11:50:13.809Z,54.40
2019-04-23T11:52:11.243Z,54.70
2019-04-23T11:54:30.754Z,55.50
2019-04-23T11:57:21.160Z,56.00
2019-04-23T11:59:51.946Z,55.80
2019-04-23T12:02:32.839Z,55.40
2019-04-23T12:05:15.242Z,56.60
2019-04-23T12:07:46.938Z,55.90
2019-04-23T12:10:25.185Z,56.30
2019-04-23T12:12:42.951Z,56.80
2019-04-23T12:15:19.679Z,56.80
2019-04-23T12:17:46.665Z,56.70
2019-04-23T12:22:51.467Z,56.70
2019-04-23T12:27:33.145Z,56.30
2019-04-23T12:35:12.969Z,55.90
2019-04-23T12:37:57.315Z,56.50
2019-04-23T12:40:24.925Z,57.10
2019-04-23T12:43:13.284Z,56.30
2019-04-23T12:45:29.054Z,56.40
2019-04-23T12:50:42.301Z,57.40
2019-04-23T12:55:23.129Z,56.70
2019-04-23T12:57:46.848Z,57.10
2019-04-23T13:00:23.106Z,56.60
2019-04-23T13:05:15.759Z,58.20
2019-04-23T13:07:50.183Z,58.20
2019-04-23T13:10:15.398Z,57.90
2019-04-23T13:17:58.817Z,58.30
2019-04-23T13:25:18.121Z,59.20
2019-04-23T13:27:57.199Z,59.60
2019-04-23T13:30:25.397Z,59.30
2019-04-23T13:32:55.403Z,59.00
2019-04-23T13:35:30.903Z,58.80
2019-04-23T13:37:54.829Z,58.90
2019-04-23T13:40:17.585Z,58.90
2019-04-23T13:42:47.329Z,59.30
2019-04-23T13:45:33.309Z,58.80
2019-04-23T13:47:53.346Z,59.90
2019-04-23T13:50:17.891Z,59.70
2019-04-23T13:55:10.953Z,59.50
2019-04-23T13:58:05.134Z,59.30
2019-04-23T14:00:07.049Z,59.60
2019-04-23T14:05:27.054Z,60.90
2019-04-23T14:07:54.804Z,60.30
2019-04-23T14:10:29.897Z,60.30
2019-04-23T14:13:08.450Z,60.80
2019-04-23T14:15:36.018Z,60.80
2019-04-23T14:18:13.291Z,60.70
2019-04-23T14:20:21.480Z,60.50
2019-04-23T14:25:16.543Z,60.20
2019-04-23T14:28:01.273Z,60.20
2019-04-23T14:30:23.356Z,60.70
2019-04-23T14:32:47.026Z,60.00
2019-04-23T14:38:07.415Z,60.00
2019-04-23T14:40:20.103Z,60.60
2019-04-23T14:45:29.625Z,61.90
2019-04-23T14:47:59.047Z,61.20
2019-04-23T14:50:32.401Z,61.30
2019-04-23T14:52:58.844Z,61.90
2019-04-23T14:58:00.514Z,61.40
2019-04-23T15:00:30.659Z,61.40
2019-04-23T15:02:53.615Z,61.50
2019-04-23T15:05:17.243Z,61.50
2019-04-23T15:07:52.757Z,61.80
2019-04-23T15:10:34.355Z,61.60
2019-04-23T15:12:45.613Z,61.60
2019-04-23T15:15:18.006Z,61.90
2019-04-23T15:17:45.072Z,61.40
2019-04-23T15:20:14.928Z,61.90
2019-04-23T15:27:21.213Z,62.40
2019-04-23T15:30:20.808Z,63.20
2019-04-23T15:33:18.484Z,63.20
2019-04-23T15:35:31.628Z,63.90
2019-04-23T15:40:23.009Z,64.00
2019-04-23T15:42:58.111Z,63.90
2019-04-23T15:45:21.071Z,64.40
2019-04-23T15:47:56.499Z,64.70
2019-04-23T15:50:23.540Z,63.40
2019-04-23T15:52:55.365Z,63.60
2019-04-23T15:55:15.070Z,63.70
2019-04-23T15:58:05.442Z,64.60
2019-04-23T16:00:13.022Z,64.10
2019-04-23T16:02:15.357Z,64.80
2019-04-23T16:04:43.862Z,64.40
2019-04-23T16:07:16.838Z,65.40
2019-04-23T16:10:19.071Z,65.10
2019-04-23T16:12:32.941Z,64.70
2019-04-23T16:17:35.624Z,65.20
2019-04-23T16:22:39.348Z,65.90
2019-04-23T16:25:12.918Z,66.40
2019-04-23T16:27:44.256Z,66.50
2019-04-23T16:30:14.225Z,66.90
2019-04-23T16:33:03.724Z,67.40
2019-04-23T16:38:15.719Z,68.20
2019-04-23T16:40:28.923Z,68.60
2019-04-23T16:43:01.574Z,68.70
2019-04-23T16:47:59.564Z,69.30
2019-04-23T16:50:20.928Z,69.60
2019-04-23T16:52:52.238Z,70.40
2019-04-23T16:55:24.229Z,70.70
2019-04-23T17:00:24.474Z,71.80
2019-04-23T17:02:48.272Z,71.90
2019-04-23T17:05:19.980Z,72.70
2019-04-23T17:07:53.015Z,73.10
2019-04-23T17:10:12.583Z,72.80
2019-04-23T17:12:41.664Z,74.10
2019-04-23T17:15:12.825Z,74.30
2019-04-23T17:17:30.664Z,74.90
2019-04-23T17:20:10.217Z,75.50
2019-04-23T17:22:33.744Z,76.40
2019-04-23T17:30:07.183Z,77.60
2019-04-23T17:32:28.062Z,78.30
2019-04-23T17:37:43.050Z,80.00
2019-04-23T17:42:49.577Z,81.50
2019-04-23T17:45:30.876Z,82.10
2019-04-23T17:47:59.251Z,83.20
2019-04-23T17:50:28.660Z,84.60
2019-04-23T17:53:00.959Z,85.00
2019-04-23T17:55:24.512Z,85.90
2019-04-23T17:57:56.249Z,86.90
2019-04-23T18:00:25.379Z,88.20
2019-04-23T18:03:01.205Z,89.40
2019-04-23T18:05:18.292Z,90.10
2019-04-23T18:07:50.478Z,90.70
2019-04-23T18:10:24.817Z,91.10
2019-04-23T18:12:51.798Z,91.70
2019-04-23T18:17:53.056Z,92.60
2019-04-23T18:20:31.545Z,93.00
2019-04-23T18:28:00.579Z,94.40
2019-04-23T18:31:00.855Z,94.80
2019-04-23T18:33:56.717Z,95.20
2019-04-23T18:35:56.743Z,95.70
2019-04-23T18:38:33.075Z,96.60
2019-04-23T18:41:05.443Z,96.90
2019-04-23T18:45:59.194Z,97.70
2019-04-23T18:48:38.868Z,98.10
2019-04-23T18:51:02.988Z,98.80
2019-04-23T18:53:33.530Z,99.00
2019-04-23T18:58:21.160Z,99.50
2019-04-23T19:03:55.347Z,99.90
2019-04-23T19:06:29.621Z,99.90
2019-04-23T19:09:13.855Z,99.90
2019-04-23T19:11:59.388Z,99.90
2019-04-23T19:14:30.727Z,99.90
2019-04-23T19:17:31.025Z,99.90
2019-04-23T19:19:20.121Z,99.90
2019-04-23T19:25:01.227Z,99.90
2019-04-23T19:29:46.316Z,99.90
2019-04-23T19:32:00.618Z,99.90
2019-04-23T19:39:29.386Z,99.90
2019-04-23T19:44:32.889Z,99.90
2019-04-23T19:47:06.318Z,99.90
2019-04-23T19:54:39.248Z,99.90
2019-04-23T19:56:58.286Z,99.90
2019-04-23T19:59:31.743Z,99.90
2019-04-23T20:01:55.191Z,99.90
2019-04-23T20:04:26.339Z,99.90
2019-04-23T20:14:14.058Z,99.90
2019-04-23T20:19:20.736Z,99.90
2019-04-23T20:21:54.913Z,99.90
2019-04-23T20:24:32.337Z,99.90
2019-04-23T20:26:51.441Z,99.90
2019-04-23T20:34:40.300Z,99.90
2019-04-23T20:36:53.165Z,99.90
2019-04-23T20:39:33.275Z,99.90
2019-04-23T20:42:12.387Z,99.90
2019-04-23T20:47:00.278Z,99.90
2019-04-23T20:49:28.303Z,99.90
2019-04-23T20:52:00.214Z,99.90
2019-04-23T20:54:36.196Z,99.90
2019-04-23T20:57:10.282Z,99.90
2019-04-23T20:59:49.827Z,99.90
2019-04-23T21:02:47.751Z,99.90
2019-04-23T21:05:03.240Z,99.90
2019-04-23T21:07:41.988Z,99.90
2019-04-23T21:10:12.553Z,99.90
2019-04-23T21:12:41.881Z,99.90
2019-04-23T21:17:26.281Z,99.90
2019-04-23T21:20:01.025Z,99.90
2019-04-23T21:24:46.138Z,99.90
2019-04-23T21:27:35.434Z,99.90
2019-04-23T21:30:03.371Z,99.90
2019-04-23T21:32:24.771Z,99.90
2019-04-23T21:34:55.690Z,99.90
2019-04-23T21:37:32.632Z,99.90
2019-04-23T21:40:19.221Z,99.90
2019-04-23T21:42:58.919Z,99.90
2019-04-23T21:45:19.742Z,99.90
2019-04-23T21:47:54.808Z,99.90
2019-04-23T21:50:19.248Z,99.90
2019-04-23T21:52:45.877Z,99.90
2019-04-23T21:55:09.803Z,99.90
2019-04-23T22:00:11.845Z,99.90
2019-04-23T22:02:45.560Z,99.90
2019-04-23T22:05:17.318Z,99.90
2019-04-23T22:07:49.762Z,99.90
2019-04-23T22:10:02.541Z,99.90
2019-04-23T22:12:40.357Z,99.90
2019-04-23T22:14:57.774Z,99.90
2019-04-23T22:17:32.582Z,99.90
2019-04-23T22:20:14.483Z,99.90
2019-04-23T22:22:41.844Z,99.90
2019-04-23T22:24:57.249Z,99.90
2019-04-23T22:27:30.438Z,99.90
2019-04-23T22:29:50.400Z,99.90
2019-04-23T22:32:32.681Z,99.90
2019-04-23T22:34:58.396Z,99.90
2019-04-23T22:37:23.895Z,99.90
2019-04-23T22:39:52.512Z,99.90
2019-04-23T22:42:26.964Z,99.90
2019-04-23T22:47:07.149Z,99.90
2019-04-23T22:50:00.484Z,99.90
2019-04-23T22:52:21.366Z,99.90
2019-04-23T22:54:57.147Z,99.90
2019-04-23T22:57:09.114Z,99.90
2019-04-23T23:02:44.371Z,99.90
2019-04-23T23:05:14.108Z,99.90
2019-04-23T23:07:44.529Z,99.90
2019-04-23T23:10:09.017Z,99.90
2019-04-23T23:12:34.570Z,99.90
2019-04-23T23:15:05.227Z,99.90
2019-04-23T23:17:30.595Z,99.90
2019-04-23T23:20:06.923Z,99.90
2019-04-23T23:22:51.793Z,99.90
2019-04-23T23:24:59.587Z,99.90
2019-04-23T23:27:23.612Z,99.90
2019-04-23T23:30:00.038Z,99.90
2019-04-23T23:32:26.149Z,99.90
2019-04-23T23:35:04.358Z,99.90
2019-04-23T23:37:15.652Z,99.90
2019-04-23T23:39:49.627Z,99.90
2019-04-23T23:44:56.347Z,99.90
2019-04-23T23:47:18.127Z,99.90
2019-04-23T23:49:44.228Z,99.90
2019-04-23T23:52:03.265Z,99.90
2019-04-23T23:54:35.538Z,99.90
